createdAt,value
2022-08-22T00:01:40.054Z,24.50
2022-08-22T00:02:44.177Z,25.10
2022-08-22T00:02:45.810Z,25.80
2022-08-22T00:04:40.313Z,24.50
2022-08-22T00:07:46.504Z,24.50
2022-08-22T00:10:53.682Z,24.50
2022-08-22T00:14:01.311Z,24.50
2022-08-22T00:16:51.692Z,24.50
2022-08-22T00:19:56.946Z,24.40
2022-08-22T00:22:38.562Z,24.40
2022-08-22T00:25:36.215Z,24.50
2022-08-22T00:28:18.048Z,24.50
2022-08-22T00:31:00.352Z,24.50
2022-08-22T00:33:43.777Z,24.40
2022-08-22T00:36:40.158Z,24.40
2022-08-22T00:39:19.708Z,24.40
2022-08-22T00:42:30.307Z,24.40
2022-08-22T00:45:35.475Z,24.40
2022-08-22T00:48:24.234Z,23.80
2022-08-22T00:51:25.536Z,24.50
2022-08-22T00:54:26.016Z,24.50
2022-08-22T00:57:18.457Z,24.60
2022-08-22T01:03:36.835Z,24.70
2022-08-22T01:13:18.084Z,24.70
2022-08-22T01:15:50.540Z,24.80
2022-08-22T01:18:58.738Z,24.90
2022-08-22T01:21:59.117Z,25.00
2022-08-22T01:25:21.478Z,25.10
2022-08-22T01:28:29.651Z,25.30
2022-08-22T01:31:35.572Z,25.40
2022-08-22T01:34:40.367Z,25.50
2022-08-22T01:44:15.600Z,26.10
2022-08-22T01:47:11.298Z,26.40
2022-08-22T01:52:55.076Z,26.90
2022-08-22T01:56:02.743Z,27.00
2022-08-22T01:58:38.198Z,27.10
2022-08-22T02:01:43.529Z,27.20
2022-08-22T02:04:39.115Z,27.40
2022-08-22T02:07:24.124Z,27.50
2022-08-22T02:10:25.663Z,27.70
2022-08-22T02:13:10.572Z,27.70
2022-08-22T02:15:53.067Z,27.80
2022-08-22T02:18:48.903Z,27.90
2022-08-22T02:21:29.750Z,28.00
2022-08-22T02:27:31.580Z,28.10
2022-08-22T02:30:18.576Z,28.30
2022-08-22T02:36:07.548Z,28.60
2022-08-22T02:39:01.666Z,28.70
2022-08-22T02:42:13.118Z,28.80
2022-08-22T02:44:59.213Z,28.80
2022-08-22T02:47:51.356Z,28.80
2022-08-22T02:50:51.751Z,28.70
2022-08-22T02:53:39.635Z,28.70
2022-08-22T02:56:19.074Z,28.70
2022-08-22T02:59:01.497Z,28.60
2022-08-22T03:01:44.069Z,28.60
2022-08-22T03:04:48.789Z,28.70
2022-08-22T03:07:32.442Z,29.00
2022-08-22T03:19:52.336Z,29.50
2022-08-22T03:22:54.112Z,29.40
2022-08-22T03:26:07.636Z,29.50
2022-08-22T03:28:52.637Z,29.60
2022-08-22T03:31:32.084Z,29.80
2022-08-22T03:34:29.528Z,29.90
2022-08-22T03:37:24.203Z,29.80
2022-08-22T03:40:02.925Z,29.80
2022-08-22T03:43:04.067Z,29.60
2022-08-22T03:49:19.750Z,29.20
2022-08-22T03:52:15.256Z,29.20
2022-08-22T03:55:16.250Z,29.30
2022-08-22T04:04:46.455Z,29.60
2022-08-22T04:07:46.908Z,29.70
2022-08-22T04:10:57.153Z,29.80
2022-08-22T04:13:53.029Z,29.80
2022-08-22T04:16:57.674Z,29.80
2022-08-22T04:19:53.674Z,30.00
2022-08-22T04:22:58.615Z,30.10
2022-08-22T04:25:40.830Z,30.20
2022-08-22T04:28:30.482Z,30.30
2022-08-22T04:31:19.949Z,30.30
2022-08-22T04:33:56.049Z,30.40
2022-08-22T04:39:50.909Z,30.50
2022-08-22T04:45:32.493Z,30.60
2022-08-22T04:48:16.904Z,30.50
2022-08-22T04:50:57.228Z,30.50
2022-08-22T04:54:01.812Z,30.60
2022-08-22T04:56:49.147Z,30.60
2022-08-22T04:59:21.163Z,30.70
2022-08-22T05:02:01.348Z,30.70
2022-08-22T05:04:42.570Z,30.80
2022-08-22T05:07:23.066Z,30.80
2022-08-22T05:12:58.177Z,31.00
2022-08-22T05:15:41.015Z,31.00
2022-08-22T05:18:34.497Z,31.10
2022-08-22T05:21:09.284Z,31.10
2022-08-22T05:23:57.857Z,31.20
2022-08-22T05:26:30.754Z,31.30
2022-08-22T05:29:06.158Z,31.40
2022-08-22T05:31:47.341Z,31.40
2022-08-22T05:34:27.980Z,31.40
2022-08-22T05:37:18.119Z,31.30
2022-08-22T05:40:00.292Z,31.50
2022-08-22T05:42:43.005Z,31.70
2022-08-22T05:45:20.029Z,31.70
2022-08-22T05:48:16.977Z,31.70
2022-08-22T05:51:13.827Z,31.70
2022-08-22T05:54:06.078Z,31.70
2022-08-22T05:56:50.475Z,31.80
2022-08-22T05:59:47.913Z,31.80
2022-08-22T06:02:37.827Z,31.90
2022-08-22T06:05:12.126Z,31.90
2022-08-22T06:07:56.657Z,32.00
2022-08-22T06:10:49.783Z,31.90
2022-08-22T06:13:44.190Z,33.90
2022-08-22T06:16:39.999Z,32.00
2022-08-22T06:19:22.163Z,32.00
2022-08-22T06:21:57.383Z,31.90
2022-08-22T06:24:31.057Z,31.90
2022-08-22T06:27:08.318Z,31.90
2022-08-22T06:29:44.727Z,31.80
2022-08-22T06:32:44.391Z,32.00
2022-08-22T06:35:21.253Z,32.00
2022-08-22T06:37:53.452Z,32.00
2022-08-22T06:40:24.664Z,32.00
2022-08-22T06:42:56.481Z,32.00
2022-08-22T06:48:22.197Z,32.00
2022-08-22T06:50:59.112Z,32.00
2022-08-22T06:53:49.835Z,31.90
2022-08-22T06:56:28.033Z,32.00
2022-08-22T06:59:03.508Z,32.10
2022-08-22T07:01:38.643Z,32.10
2022-08-22T07:04:11.976Z,32.10
2022-08-22T07:06:52.295Z,32.20
2022-08-22T07:09:31.198Z,32.10
2022-08-22T07:12:07.509Z,32.10
2022-08-22T07:14:52.645Z,32.00
2022-08-22T07:17:29.858Z,31.90
2022-08-22T07:20:13.613Z,31.90
2022-08-22T07:22:54.330Z,32.00
2022-08-22T07:25:26.829Z,32.00
2022-08-22T07:28:15.863Z,32.00
2022-08-22T07:30:57.118Z,31.90
2022-08-22T07:33:46.279Z,32.00
2022-08-22T07:36:35.594Z,32.10
2022-08-22T07:39:32.599Z,32.10
2022-08-22T07:42:28.563Z,32.20
2022-08-22T07:45:30.372Z,32.10
2022-08-22T07:48:25.556Z,32.10
2022-08-22T07:51:17.130Z,32.10
2022-08-22T07:53:52.181Z,32.10
2022-08-22T07:56:27.413Z,32.10
2022-08-22T07:59:07.978Z,32.20
2022-08-22T08:01:43.378Z,32.20
2022-08-22T08:04:20.506Z,32.30
2022-08-22T08:06:55.047Z,32.30
2022-08-22T08:09:27.121Z,32.20
2022-08-22T08:11:57.992Z,32.30
2022-08-22T08:14:29.352Z,32.10
2022-08-22T08:17:34.204Z,32.20
2022-08-22T08:20:13.141Z,32.30
2022-08-22T08:22:48.267Z,32.30
2022-08-22T08:25:23.962Z,32.30
2022-08-22T08:28:14.397Z,32.30
2022-08-22T08:30:50.290Z,32.40
2022-08-22T08:33:26.689Z,32.40
2022-08-22T08:36:35.683Z,32.40
2022-08-22T08:39:35.438Z,32.40
2022-08-22T08:45:59.434Z,32.40
2022-08-22T08:48:59.992Z,32.50
2022-08-22T08:52:07.488Z,32.50
2022-08-22T08:55:16.020Z,32.40
2022-08-22T08:58:25.210Z,32.30
2022-08-22T09:01:28.690Z,32.40
2022-08-22T09:04:28.775Z,32.40
2022-08-22T09:14:10.604Z,32.40
2022-08-22T09:17:04.135Z,32.50
2022-08-22T09:20:18.008Z,32.50
2022-08-22T09:23:20.710Z,32.50
2022-08-22T09:26:07.963Z,32.40
2022-08-22T09:28:56.978Z,32.30
2022-08-22T09:31:52.099Z,32.30
2022-08-22T09:34:51.951Z,32.30
2022-08-22T09:37:52.419Z,32.30
2022-08-22T09:40:16.254Z,32.50
2022-08-22T09:40:42.226Z,32.30
2022-08-22T09:46:34.724Z,32.20
2022-08-22T09:49:21.921Z,32.10
2022-08-22T09:52:33.770Z,32.00
2022-08-22T09:55:35.442Z,32.10
2022-08-22T09:58:19.645Z,32.10
2022-08-22T10:01:27.687Z,32.10
2022-08-22T10:04:35.663Z,32.10
2022-08-22T10:07:35.987Z,32.00
2022-08-22T10:10:35.855Z,32.00
2022-08-22T10:13:45.697Z,32.10
2022-08-22T10:16:46.650Z,32.00
2022-08-22T10:19:40.623Z,31.90
2022-08-22T10:22:44.532Z,31.80
2022-08-22T10:25:41.858Z,31.90
2022-08-22T10:28:39.971Z,31.70
2022-08-22T10:34:25.021Z,31.60
2022-08-22T10:37:17.649Z,31.60
2022-08-22T10:40:28.047Z,31.50
2022-08-22T10:43:08.498Z,31.50
2022-08-22T10:45:44.989Z,31.40
2022-08-22T10:51:37.808Z,31.60
2022-08-22T10:58:01.112Z,31.60
2022-08-22T11:00:52.671Z,31.50
2022-08-22T11:03:51.900Z,31.50
2022-08-22T11:06:55.191Z,31.40
2022-08-22T11:09:43.529Z,31.40
2022-08-22T11:12:36.193Z,31.40
2022-08-22T11:15:43.324Z,31.50
2022-08-22T11:19:01.859Z,31.40
2022-08-22T11:22:03.891Z,31.40
2022-08-22T11:25:04.838Z,31.30
2022-08-22T11:28:04.594Z,31.30
2022-08-22T11:31:07.187Z,31.20
2022-08-22T11:34:03.234Z,31.10
2022-08-22T11:36:55.390Z,31.00
2022-08-22T11:39:41.092Z,31.00
2022-08-22T11:42:23.388Z,30.90
2022-08-22T11:45:01.361Z,31.00
2022-08-22T11:47:46.557Z,30.90
2022-08-22T11:50:47.255Z,30.90
2022-08-22T11:56:40.111Z,30.80
2022-08-22T12:03:01.422Z,30.70
2022-08-22T12:06:08.814Z,30.60
2022-08-22T12:09:18.571Z,30.50
2022-08-22T12:15:24.413Z,30.30
2022-08-22T12:18:29.682Z,30.20
2022-08-22T12:21:18.119Z,30.20
2022-08-22T12:24:30.639Z,30.20
2022-08-22T12:27:28.692Z,30.20
2022-08-22T12:30:18.705Z,30.10
2022-08-22T12:36:31.775Z,30.00
2022-08-22T12:39:32.165Z,30.00
2022-08-22T12:42:32.595Z,30.00
2022-08-22T12:45:34.546Z,29.80
2022-08-22T12:48:33.673Z,29.60
2022-08-22T12:54:32.255Z,29.50
2022-08-22T13:00:42.421Z,29.40
2022-08-22T13:03:30.979Z,29.40
2022-08-22T13:06:27.818Z,29.40
2022-08-22T13:09:00.452Z,29.40
2022-08-22T13:11:39.442Z,29.30
2022-08-22T13:14:18.539Z,29.20
2022-08-22T13:16:55.906Z,29.10
2022-08-22T13:22:29.004Z,28.90
2022-08-22T13:25:25.489Z,28.80
2022-08-22T13:28:04.029Z,28.70
2022-08-22T13:30:41.316Z,28.70
2022-08-22T13:33:24.200Z,28.60
2022-08-22T13:36:00.478Z,28.60
2022-08-22T13:38:46.392Z,28.50
2022-08-22T13:41:28.996Z,28.50
2022-08-22T13:44:15.990Z,28.50
2022-08-22T13:47:13.099Z,28.50
2022-08-22T13:49:45.167Z,28.50
2022-08-22T13:52:52.283Z,28.50
2022-08-22T13:55:42.967Z,28.50
2022-08-22T13:58:27.150Z,28.40
2022-08-22T14:01:21.569Z,28.40
2022-08-22T14:04:26.661Z,28.50
2022-08-22T14:07:41.790Z,28.40
2022-08-22T14:10:23.059Z,28.40
2022-08-22T14:13:30.113Z,28.40
2022-08-22T14:16:05.442Z,28.40
2022-08-22T14:18:49.500Z,28.40
2022-08-22T14:21:59.558Z,28.40
2022-08-22T14:24:48.873Z,28.30
2022-08-22T14:28:00.980Z,28.40
2022-08-22T14:30:40.508Z,28.30
2022-08-22T14:33:28.319Z,28.30
2022-08-22T14:36:05.921Z,28.20
2022-08-22T14:38:46.102Z,28.30
2022-08-22T14:41:56.078Z,28.20
2022-08-22T14:44:33.892Z,28.20
2022-08-22T14:47:54.208Z,28.10
2022-08-22T14:50:11.539Z,28.10
2022-08-22T14:52:48.028Z,28.10
2022-08-22T14:55:27.815Z,28.00
2022-08-22T14:58:07.344Z,28.00
2022-08-22T15:00:43.274Z,28.00
2022-08-22T15:04:01.143Z,28.00
2022-08-22T15:06:58.886Z,28.00
2022-08-22T15:09:53.276Z,27.90
2022-08-22T15:12:52.037Z,27.90
2022-08-22T15:16:05.720Z,27.90
2022-08-22T15:18:40.209Z,27.90
2022-08-22T15:21:36.900Z,27.90
2022-08-22T15:24:17.277Z,27.90
2022-08-22T15:26:57.412Z,28.00
2022-08-22T15:29:33.955Z,27.90
2022-08-22T15:32:06.314Z,27.80
2022-08-22T15:35:04.802Z,27.70
2022-08-22T15:37:55.494Z,27.70
2022-08-22T15:40:47.696Z,27.70
2022-08-22T15:43:38.648Z,27.70
2022-08-22T15:46:31.966Z,27.70
2022-08-22T15:49:13.489Z,27.70
2022-08-22T15:52:14.232Z,27.60
2022-08-22T15:55:17.274Z,27.60
2022-08-22T15:58:14.729Z,27.60
2022-08-22T16:01:05.562Z,27.50
2022-08-22T16:04:08.151Z,27.60
2022-08-22T16:06:48.134Z,27.50
2022-08-22T16:09:43.594Z,27.50
2022-08-22T16:12:31.700Z,27.40
2022-08-22T16:15:04.911Z,27.40
2022-08-22T16:17:45.880Z,27.40
2022-08-22T16:20:48.733Z,27.30
2022-08-22T16:23:19.834Z,27.30
2022-08-22T16:26:11.052Z,27.20
2022-08-22T16:28:58.790Z,27.30
2022-08-22T16:31:59.890Z,27.20
2022-08-22T16:34:47.865Z,27.20
2022-08-22T16:40:28.239Z,27.20
2022-08-22T16:46:02.055Z,27.10
2022-08-22T16:51:27.539Z,27.10
2022-08-22T16:54:10.861Z,27.10
2022-08-22T16:56:56.129Z,27.00
2022-08-22T16:59:45.984Z,27.10
2022-08-22T17:02:30.095Z,27.10
2022-08-22T17:08:42.326Z,26.90
2022-08-22T17:11:29.128Z,26.90
2022-08-22T17:14:32.400Z,26.90
2022-08-22T17:20:52.916Z,26.90
2022-08-22T17:27:03.745Z,26.80
2022-08-22T17:33:04.693Z,26.90
2022-08-22T17:36:03.609Z,26.80
2022-08-22T17:39:11.068Z,26.80
2022-08-22T17:42:01.442Z,26.80
2022-08-22T17:45:00.853Z,26.80
2022-08-22T17:47:40.645Z,26.70
2022-08-22T17:50:21.102Z,26.70
2022-08-22T17:53:06.336Z,26.70
2022-08-22T17:55:56.867Z,26.70
2022-08-22T17:58:43.505Z,26.80
2022-08-22T18:01:37.992Z,26.70
2022-08-22T18:04:14.367Z,26.70
2022-08-22T18:06:56.274Z,26.70
2022-08-22T18:12:51.741Z,26.70
2022-08-22T18:15:47.012Z,26.60
2022-08-22T18:18:33.340Z,26.60
2022-08-22T18:21:22.520Z,26.60
2022-08-22T18:24:22.039Z,26.60
2022-08-22T18:30:22.299Z,26.70
2022-08-22T18:33:08.811Z,26.60
2022-08-22T18:35:53.764Z,26.60
2022-08-22T18:38:34.671Z,26.60
2022-08-22T18:41:34.545Z,26.60
2022-08-22T18:53:42.870Z,26.40
2022-08-22T18:56:44.029Z,26.30
2022-08-22T18:59:43.538Z,26.40
2022-08-22T19:02:46.135Z,26.30
2022-08-22T19:05:54.887Z,26.40
2022-08-22T19:08:44.585Z,26.40
2022-08-22T19:11:45.088Z,26.40
2022-08-22T19:14:50.517Z,26.40
2022-08-22T19:17:59.542Z,26.40
2022-08-22T19:20:55.361Z,26.40
2022-08-22T19:23:45.499Z,26.30
2022-08-22T19:26:35.558Z,26.30
2022-08-22T19:29:44.750Z,26.20
2022-08-22T19:32:47.297Z,26.20
2022-08-22T19:35:27.996Z,26.20
2022-08-22T19:38:03.412Z,26.30
2022-08-22T19:40:53.353Z,26.20
2022-08-22T19:43:44.316Z,26.30
2022-08-22T19:46:16.904Z,26.20
2022-08-22T19:48:54.436Z,26.30
2022-08-22T19:51:30.539Z,26.30
2022-08-22T19:57:15.707Z,26.30
2022-08-22T20:03:33.113Z,26.30
2022-08-22T20:06:45.295Z,26.30
2022-08-22T20:09:47.176Z,26.30
2022-08-22T20:12:42.310Z,26.30
2022-08-22T20:21:03.742Z,26.20
2022-08-22T20:23:34.255Z,26.20
2022-08-22T20:26:05.503Z,26.20
2022-08-22T20:28:54.384Z,26.10
2022-08-22T20:31:30.063Z,26.10
2022-08-22T20:34:05.818Z,26.10
2022-08-22T20:36:36.220Z,26.10
2022-08-22T20:39:13.407Z,26.10
2022-08-22T20:47:34.103Z,26.00
2022-08-22T20:50:14.282Z,25.90
2022-08-22T20:52:54.371Z,25.90
2022-08-22T21:01:16.249Z,25.90
2022-08-22T21:03:50.498Z,25.90
2022-08-22T21:09:37.281Z,25.90
2022-08-22T21:12:11.422Z,25.90
2022-08-22T21:14:48.076Z,25.90
2022-08-22T21:17:24.998Z,25.90
2022-08-22T21:19:57.765Z,25.90
2022-08-22T21:22:32.429Z,25.80
2022-08-22T21:25:03.663Z,25.80
2022-08-22T21:27:36.777Z,25.70
2022-08-22T21:30:10.847Z,25.70
2022-08-22T21:32:53.745Z,25.70
2022-08-22T21:35:32.298Z,25.70
2022-08-22T21:38:03.705Z,25.70
2022-08-22T21:40:39.742Z,25.60
2022-08-22T21:43:17.263Z,25.60
2022-08-22T21:45:47.996Z,25.70
2022-08-22T21:48:52.527Z,25.70
2022-08-22T21:51:42.653Z,25.60
2022-08-22T21:54:41.726Z,25.60
2022-08-22T21:57:22.912Z,25.60
2022-08-22T21:59:58.844Z,25.50
2022-08-22T22:02:40.880Z,25.60
2022-08-22T22:05:18.061Z,25.50
2022-08-22T22:07:50.375Z,25.50
2022-08-22T22:10:24.719Z,25.50
2022-08-22T22:12:58.623Z,25.50
2022-08-22T22:15:33.963Z,25.50
2022-08-22T22:18:04.310Z,25.40
2022-08-22T22:20:34.794Z,25.50
2022-08-22T22:23:05.614Z,25.40
2022-08-22T22:25:40.734Z,25.40
2022-08-22T22:28:18.782Z,25.40
2022-08-22T22:30:52.664Z,25.40
2022-08-22T22:33:27.383Z,25.30
2022-08-22T22:36:00.935Z,25.30
2022-08-22T22:38:31.356Z,25.20
2022-08-22T22:41:01.862Z,25.20
2022-08-22T22:43:32.243Z,25.10
2022-08-22T22:46:03.099Z,25.20
2022-08-22T22:48:33.892Z,25.10
2022-08-22T22:51:11.152Z,25.10
2022-08-22T22:53:43.727Z,25.00
2022-08-22T22:56:21.311Z,24.90
2022-08-22T22:59:00.767Z,24.90
2022-08-22T23:01:34.110Z,24.90
2022-08-22T23:04:05.815Z,24.90
2022-08-22T23:06:37.037Z,25.00
2022-08-22T23:09:07.417Z,25.00
2022-08-22T23:11:37.925Z,25.00
2022-08-22T23:14:08.367Z,25.10
2022-08-22T23:16:41.691Z,25.00
2022-08-22T23:19:13.804Z,25.00
2022-08-22T23:21:45.600Z,25.10
2022-08-22T23:24:16.868Z,25.00
2022-08-22T23:26:47.687Z,25.00
2022-08-22T23:29:18.522Z,25.00
2022-08-22T23:32:01.341Z,25.00
2022-08-22T23:34:35.267Z,25.00
2022-08-22T23:37:08.199Z,25.00
2022-08-22T23:39:40.541Z,25.00
2022-08-22T23:42:12.067Z,25.00
2022-08-22T23:44:44.539Z,25.00
2022-08-22T23:47:16.657Z,25.10
2022-08-22T23:49:47.140Z,25.00
2022-08-22T23:52:18.185Z,25.00
2022-08-22T23:54:48.512Z,25.00
2022-08-22T23:57:26.510Z,25.00
2022-08-22T23:59:59.863Z,25.00
